sensor_id;sensor_type;location;lat;lon;timestamp;pressure;altitude;pressure_sealevel;temperature;humidity
46379;BME280;32084;42.254;22.744;2023-05-08T00:00:20;95367.34;;;12.62;89.59
46379;BME280;32084;42.254;22.744;2023-05-08T00:02:46;95372.03;;;12.52;90.16
46379;BME280;32084;42.254;22.744;2023-05-08T00:05:12;95362.00;;;12.62;88.80
46379;BME280;32084;42.254;22.744;2023-05-08T00:07:38;95364.81;;;12.68;88.03
46379;BME280;32084;42.254;22.744;2023-05-08T00:10:05;95371.88;;;12.69;88.40
46379;BME280;32084;42.254;22.744;2023-05-08T00:12:32;95368.03;;;12.47;88.83
46379;BME280;32084;42.254;22.744;2023-05-08T00:14:58;95372.53;;;12.30;89.30
46379;BME280;32084;42.254;22.744;2023-05-08T00:17:24;95372.88;;;12.36;89.10
46379;BME280;32084;42.254;22.744;2023-05-08T00:19:50;95374.22;;;12.48;89.02
46379;BME280;32084;42.254;22.744;2023-05-08T00:22:18;95375.56;;;12.68;88.42
46379;BME280;32084;42.254;22.744;2023-05-08T00:24:44;95373.06;;;12.50;88.94
46379;BME280;32084;42.254;22.744;2023-05-08T00:27:10;95378.06;;;12.45;88.92
46379;BME280;32084;42.254;22.744;2023-05-08T00:29:36;95376.72;;;12.49;88.80
46379;BME280;32084;42.254;22.744;2023-05-08T00:32:02;95381.91;;;12.59;88.19
46379;BME280;32084;42.254;22.744;2023-05-08T00:34:28;95382.59;;;12.53;88.82
46379;BME280;32084;42.254;22.744;2023-05-08T00:36:55;95375.56;;;12.60;88.44
46379;BME280;32084;42.254;22.744;2023-05-08T00:39:21;95377.25;;;12.53;89.09
46379;BME280;32084;42.254;22.744;2023-05-08T00:41:46;95374.88;;;12.42;90.02
46379;BME280;32084;42.254;22.744;2023-05-08T00:44:13;95381.25;;;12.57;89.17
46379;BME280;32084;42.254;22.744;2023-05-08T00:46:39;95377.91;;;12.63;88.73
46379;BME280;32084;42.254;22.744;2023-05-08T00:49:05;95382.91;;;12.75;88.61
46379;BME280;32084;42.254;22.744;2023-05-08T00:51:31;95381.75;;;12.77;89.07
46379;BME280;32084;42.254;22.744;2023-05-08T00:53:58;95385.94;;;12.80;88.60
46379;BME280;32084;42.254;22.744;2023-05-08T00:56:24;95396.69;;;12.80;88.55
46379;BME280;32084;42.254;22.744;2023-05-08T00:58:52;95386.78;;;12.56;89.77
46379;BME280;32084;42.254;22.744;2023-05-08T01:01:19;95375.56;;;12.60;89.69
46379;BME280;32084;42.254;22.744;2023-05-08T01:03:45;95380.78;;;12.62;90.13
46379;BME280;32084;42.254;22.744;2023-05-08T01:06:11;95379.59;;;12.64;90.08
46379;BME280;32084;42.254;22.744;2023-05-08T01:08:37;95379.75;;;12.46;91.04
46379;BME280;32084;42.254;22.744;2023-05-08T01:13:51;95374.22;;;12.73;89.43
46379;BME280;32084;42.254;22.744;2023-05-08T01:19:19;95381.91;;;12.26;90.98
46379;BME280;32084;42.254;22.744;2023-05-08T01:21:55;95381.41;;;12.31;90.33
46379;BME280;32084;42.254;22.744;2023-05-08T01:24:42;95391.47;;;12.21;90.71
46379;BME280;32084;42.254;22.744;2023-05-08T01:32:29;95379.41;;;12.25;89.79
46379;BME280;32084;42.254;22.744;2023-05-08T01:42:49;95381.03;;;12.01;89.54
46379;BME280;32084;42.254;22.744;2023-05-08T01:45:20;95388.41;;;11.99;89.64
46379;BME280;32084;42.254;22.744;2023-05-08T01:47:48;95386.88;;;11.97;89.08
46379;BME280;32084;42.254;22.744;2023-05-08T01:50:17;95378.88;;;11.62;90.25
46379;BME280;32084;42.254;22.744;2023-05-08T01:52:47;95380.03;;;11.51;90.86
46379;BME280;32084;42.254;22.744;2023-05-08T01:55:16;95384.91;;;11.64;90.50
46379;BME280;32084;42.254;22.744;2023-05-08T01:57:48;95391.97;;;11.73;89.92
46379;BME280;32084;42.254;22.744;2023-05-08T02:00:16;95389.13;;;11.67;90.34
46379;BME280;32084;42.254;22.744;2023-05-08T02:02:44;95394.47;;;11.67;90.02
46379;BME280;32084;42.254;22.744;2023-05-08T02:05:11;95392.78;;;11.58;90.21
46379;BME280;32084;42.254;22.744;2023-05-08T02:07:37;95399.31;;;11.63;89.45
46379;BME280;32084;42.254;22.744;2023-05-08T02:10:04;95400.31;;;11.62;88.98
46379;BME280;32084;42.254;22.744;2023-05-08T02:12:31;95394.13;;;11.62;88.96
46379;BME280;32084;42.254;22.744;2023-05-08T02:14:58;95403.63;;;11.56;89.71
46379;BME280;32084;42.254;22.744;2023-05-08T02:17:24;95399.63;;;11.60;89.69
46379;BME280;32084;42.254;22.744;2023-05-08T02:19:51;95401.09;;;11.46;89.37
46379;BME280;32084;42.254;22.744;2023-05-08T02:22:19;95405.00;;;11.26;90.17
46379;BME280;32084;42.254;22.744;2023-05-08T02:24:46;95400.97;;;11.22;91.05
46379;BME280;32084;42.254;22.744;2023-05-08T02:27:13;95402.53;;;11.32;90.96
46379;BME280;32084;42.254;22.744;2023-05-08T02:29:39;95400.03;;;11.39;90.52
46379;BME280;32084;42.254;22.744;2023-05-08T02:32:06;95407.09;;;11.40;90.17
46379;BME280;32084;42.254;22.744;2023-05-08T02:34:33;95403.03;;;11.36;89.92
46379;BME280;32084;42.254;22.744;2023-05-08T02:37:00;95409.53;;;11.25;90.47
46379;BME280;32084;42.254;22.744;2023-05-08T02:39:29;95405.66;;;11.28;89.43
46379;BME280;32084;42.254;22.744;2023-05-08T02:41:55;95404.31;;;11.24;90.52
46379;BME280;32084;42.254;22.744;2023-05-08T02:44:22;95393.78;;;11.30;90.83
46379;BME280;32084;42.254;22.744;2023-05-08T02:52:04;95398.84;;;11.07;91.95
46379;BME280;32084;42.254;22.744;2023-05-08T02:59:50;95399.00;;;11.32;90.83
46379;BME280;32084;42.254;22.744;2023-05-08T03:03:05;95399.00;;;11.32;90.50
46379;BME280;32084;42.254;22.744;2023-05-08T03:05:12;95397.28;;;11.23;90.29
46379;BME280;32084;42.254;22.744;2023-05-08T03:07:39;95405.25;;;11.14;90.35
46379;BME280;32084;42.254;22.744;2023-05-08T03:10:10;95403.38;;;11.07;91.25
46379;BME280;32084;42.254;22.744;2023-05-08T03:12:39;95399.56;;;10.83;91.83
46379;BME280;32084;42.254;22.744;2023-05-08T03:15:06;95406.31;;;10.96;91.31
46379;BME280;32084;42.254;22.744;2023-05-08T03:17:35;95413.78;;;11.10;91.48
46379;BME280;32084;42.254;22.744;2023-05-08T03:20:03;95413.59;;;11.11;90.51
46379;BME280;32084;42.254;22.744;2023-05-08T03:22:31;95413.59;;;11.11;90.01
46379;BME280;32084;42.254;22.744;2023-05-08T03:24:59;95421.22;;;11.24;90.12
46379;BME280;32084;42.254;22.744;2023-05-08T03:27:26;95415.03;;;11.24;89.81
46379;BME280;32084;42.254;22.744;2023-05-08T03:29:53;95412.09;;;11.09;90.36
46379;BME280;32084;42.254;22.744;2023-05-08T03:32:20;95425.84;;;11.14;90.87
46379;BME280;32084;42.254;22.744;2023-05-08T03:34:47;95420.75;;;11.29;90.38
46379;BME280;32084;42.254;22.744;2023-05-08T03:37:14;95421.88;;;11.26;90.32
46379;BME280;32084;42.254;22.744;2023-05-08T03:39:40;95419.84;;;11.20;90.58
46379;BME280;32084;42.254;22.744;2023-05-08T03:42:06;95418.50;;;11.16;91.53
46379;BME280;32084;42.254;22.744;2023-05-08T03:44:32;95422.69;;;11.19;91.13
46379;BME280;32084;42.254;22.744;2023-05-08T03:46:58;95421.53;;;11.21;91.22
46379;BME280;32084;42.254;22.744;2023-05-08T03:49:25;95428.97;;;11.36;91.11
46379;BME280;32084;42.254;22.744;2023-05-08T03:51:55;95421.16;;;11.42;91.25
46379;BME280;32084;42.254;22.744;2023-05-08T03:54:21;95428.53;;;11.48;90.79
46379;BME280;32084;42.254;22.744;2023-05-08T03:56:50;95426.41;;;11.60;90.35
46379;BME280;32084;42.254;22.744;2023-05-08T04:01:52;95440.75;;;11.85;90.70
46379;BME280;32084;42.254;22.744;2023-05-08T04:04:26;95436.28;;;11.94;90.67
46379;BME280;32084;42.254;22.744;2023-05-08T04:14:54;95439.84;;;12.03;89.89
46379;BME280;32084;42.254;22.744;2023-05-08T04:17:31;95448.00;;;11.93;90.00
46379;BME280;32084;42.254;22.744;2023-05-08T04:20:01;95449.84;;;11.93;91.10
46379;BME280;32084;42.254;22.744;2023-05-08T04:22:28;95443.16;;;11.97;91.30
46379;BME280;32084;42.254;22.744;2023-05-08T04:24:56;95453.94;;;12.13;90.94
46379;BME280;32084;42.254;22.744;2023-05-08T04:27:24;95449.28;;;12.32;90.28
46379;BME280;32084;42.254;22.744;2023-05-08T04:29:50;95441.44;;;12.46;89.69
46379;BME280;32084;42.254;22.744;2023-05-08T04:32:16;95441.28;;;12.64;89.19
46379;BME280;32084;42.254;22.744;2023-05-08T04:34:42;95436.94;;;12.72;89.17
46379;BME280;32084;42.254;22.744;2023-05-08T04:37:08;95439.59;;;12.55;90.15
46379;BME280;32084;42.254;22.744;2023-05-08T04:39:34;95440.59;;;12.46;90.30
46379;BME280;32084;42.254;22.744;2023-05-08T04:42:00;95436.56;;;12.50;90.72
46379;BME280;32084;42.254;22.744;2023-05-08T04:44:28;95435.91;;;12.64;91.02
46379;BME280;32084;42.254;22.744;2023-05-08T04:46:54;95434.91;;;12.82;89.87
46379;BME280;32084;42.254;22.744;2023-05-08T04:49:20;95443.63;;;13.17;88.61
46379;BME280;32084;42.254;22.744;2023-05-08T04:51:46;95437.88;;;13.44;86.83
46379;BME280;32084;42.254;22.744;2023-05-08T04:54:12;95437.97;;;13.67;86.37
46379;BME280;32084;42.254;22.744;2023-05-08T04:56:38;95424.81;;;13.81;87.16
46379;BME280;32084;42.254;22.744;2023-05-08T04:59:04;95434.03;;;13.86;86.82
46379;BME280;32084;42.254;22.744;2023-05-08T05:01:31;95432.34;;;13.94;85.96
46379;BME280;32084;42.254;22.744;2023-05-08T05:03:57;95437.81;;;14.09;84.72
46379;BME280;32084;42.254;22.744;2023-05-08T05:06:23;95432.69;;;14.22;82.75
46379;BME280;32084;42.254;22.744;2023-05-08T05:08:49;95435.25;;;14.47;82.74
46379;BME280;32084;42.254;22.744;2023-05-08T05:11:15;95425.00;;;14.73;81.72
46379;BME280;32084;42.254;22.744;2023-05-08T05:13:41;95428.34;;;15.13;80.50
46379;BME280;32084;42.254;22.744;2023-05-08T05:16:07;95426.66;;;15.50;78.33
46379;BME280;32084;42.254;22.744;2023-05-08T05:18:33;95431.38;;;15.33;77.04
46379;BME280;32084;42.254;22.744;2023-05-08T05:20:59;95435.81;;;15.26;79.53
46379;BME280;32084;42.254;22.744;2023-05-08T05:23:25;95437.13;;;15.45;79.28
46379;BME280;32084;42.254;22.744;2023-05-08T05:25:51;95424.50;;;15.46;78.44
46379;BME280;32084;42.254;22.744;2023-05-08T05:28:17;95426.34;;;15.45;78.76
46379;BME280;32084;42.254;22.744;2023-05-08T05:30:45;95431.19;;;15.50;77.75
46379;BME280;32084;42.254;22.744;2023-05-08T05:33:11;95419.59;;;15.64;76.50
46379;BME280;32084;42.254;22.744;2023-05-08T05:35:37;95431.91;;;16.18;75.63
46379;BME280;32084;42.254;22.744;2023-05-08T05:38:03;95428.31;;;16.47;75.00
46379;BME280;32084;42.254;22.744;2023-05-08T05:40:30;95418.19;;;16.49;75.51
46379;BME280;32084;42.254;22.744;2023-05-08T05:42:56;95425.22;;;16.50;75.67
46379;BME280;32084;42.254;22.744;2023-05-08T05:45:22;95424.59;;;16.48;75.76
46379;BME280;32084;42.254;22.744;2023-05-08T05:47:48;95419.91;;;16.57;75.91
46379;BME280;32084;42.254;22.744;2023-05-08T05:50:17;95423.66;;;16.77;74.43
46379;BME280;32084;42.254;22.744;2023-05-08T05:52:43;95424.38;;;16.86;73.47
46379;BME280;32084;42.254;22.744;2023-05-08T05:55:09;95425.81;;;16.67;72.24
46379;BME280;32084;42.254;22.744;2023-05-08T05:57:36;95425.31;;;16.57;73.95
46379;BME280;32084;42.254;22.744;2023-05-08T06:00:02;95427.06;;;17.08;72.28
46379;BME280;32084;42.254;22.744;2023-05-08T06:02:29;95424.50;;;17.56;68.84
46379;BME280;32084;42.254;22.744;2023-05-08T06:04:55;95428.50;;;17.32;70.35
46379;BME280;32084;42.254;22.744;2023-05-08T06:07:21;95427.41;;;17.54;69.64
46379;BME280;32084;42.254;22.744;2023-05-08T06:09:47;95417.56;;;17.12;71.21
46379;BME280;32084;42.254;22.744;2023-05-08T06:12:15;95413.59;;;17.71;70.06
46379;BME280;32084;42.254;22.744;2023-05-08T06:14:43;95409.53;;;18.23;68.32
46379;BME280;32084;42.254;22.744;2023-05-08T06:17:10;95411.84;;;18.40;67.95
46379;BME280;32084;42.254;22.744;2023-05-08T06:19:40;95411.16;;;18.92;66.26
46379;BME280;32084;42.254;22.744;2023-05-08T06:22:06;95417.84;;;19.37;64.42
46379;BME280;32084;42.254;22.744;2023-05-08T06:24:32;95416.38;;;19.34;63.20
46379;BME280;32084;42.254;22.744;2023-05-08T06:27:00;95422.00;;;19.19;63.28
46379;BME280;32084;42.254;22.744;2023-05-08T06:29:26;95412.84;;;19.00;63.98
46379;BME280;32084;42.254;22.744;2023-05-08T06:31:52;95409.69;;;18.83;62.87
46379;BME280;32084;42.254;22.744;2023-05-08T06:34:18;95416.09;;;18.69;64.76
46379;BME280;32084;42.254;22.744;2023-05-08T06:36:44;95414.09;;;19.04;63.93
46379;BME280;32084;42.254;22.744;2023-05-08T06:39:10;95410.13;;;19.34;61.88
46379;BME280;32084;42.254;22.744;2023-05-08T06:41:36;95419.28;;;19.59;61.59
46379;BME280;32084;42.254;22.744;2023-05-08T06:44:02;95413.44;;;18.89;63.79
46379;BME280;32084;42.254;22.744;2023-05-08T06:46:28;95418.91;;;19.36;64.32
46379;BME280;32084;42.254;22.744;2023-05-08T06:48:54;95425.94;;;19.77;62.02
46379;BME280;32084;42.254;22.744;2023-05-08T06:51:20;95417.84;;;20.35;61.76
46379;BME280;32084;42.254;22.744;2023-05-08T06:53:47;95410.25;;;20.51;59.39
46379;BME280;32084;42.254;22.744;2023-05-08T06:56:13;95418.66;;;20.42;60.08
46379;BME280;32084;42.254;22.744;2023-05-08T06:58:39;95411.41;;;20.75;58.18
46379;BME280;32084;42.254;22.744;2023-05-08T07:01:05;95407.16;;;21.17;58.21
46379;BME280;32084;42.254;22.744;2023-05-08T07:03:31;95407.25;;;21.29;56.48
46379;BME280;32084;42.254;22.744;2023-05-08T07:05:57;95411.19;;;21.58;56.72
46379;BME280;32084;42.254;22.744;2023-05-08T07:08:23;95410.88;;;21.92;57.26
46379;BME280;32084;42.254;22.744;2023-05-08T07:10:50;95411.94;;;22.09;55.07
46379;BME280;32084;42.254;22.744;2023-05-08T07:13:16;95404.97;;;21.76;55.75
46379;BME280;32084;42.254;22.744;2023-05-08T07:15:46;95408.88;;;21.37;54.62
46379;BME280;32084;42.254;22.744;2023-05-08T07:18:12;95414.00;;;21.52;56.80
46379;BME280;32084;42.254;22.744;2023-05-08T07:20:39;95403.03;;;21.33;55.79
46379;BME280;32084;42.254;22.744;2023-05-08T07:23:05;95402.72;;;22.10;55.66
46379;BME280;32084;42.254;22.744;2023-05-08T07:25:32;95403.72;;;22.16;53.61
46379;BME280;32084;42.254;22.744;2023-05-08T07:27:58;95401.13;;;22.39;53.85
46379;BME280;32084;42.254;22.744;2023-05-08T07:30:24;95399.47;;;22.01;53.91
46379;BME280;32084;42.254;22.744;2023-05-08T07:32:50;95404.00;;;21.71;53.31
46379;BME280;32084;42.254;22.744;2023-05-08T07:35:16;95406.44;;;21.29;56.96
46379;BME280;32084;42.254;22.744;2023-05-08T07:37:42;95409.53;;;22.01;56.24
46379;BME280;32084;42.254;22.744;2023-05-08T07:40:09;95407.72;;;22.80;54.28
46379;BME280;32084;42.254;22.744;2023-05-08T07:42:41;95413.28;;;23.04;53.40
46379;BME280;32084;42.254;22.744;2023-05-08T07:45:08;95412.13;;;22.63;53.77
46379;BME280;32084;42.254;22.744;2023-05-08T07:47:34;95408.63;;;22.07;54.81
46379;BME280;32084;42.254;22.744;2023-05-08T07:50:01;95414.69;;;21.40;56.62
46379;BME280;32084;42.254;22.744;2023-05-08T07:52:27;95411.19;;;21.08;57.31
46379;BME280;32084;42.254;22.744;2023-05-08T07:54:53;95419.41;;;21.26;58.03
46379;BME280;32084;42.254;22.744;2023-05-08T07:57:19;95420.63;;;21.31;60.00
46379;BME280;32084;42.254;22.744;2023-05-08T07:59:45;95411.75;;;21.42;58.35
46379;BME280;32084;42.254;22.744;2023-05-08T08:02:11;95418.31;;;21.34;57.10
46379;BME280;32084;42.254;22.744;2023-05-08T08:04:37;95416.94;;;21.43;57.42
46379;BME280;32084;42.254;22.744;2023-05-08T08:07:04;95417.31;;;21.29;57.11
46379;BME280;32084;42.254;22.744;2023-05-08T08:09:30;95419.78;;;21.05;55.28
46379;BME280;32084;42.254;22.744;2023-05-08T08:11:57;95413.91;;;20.76;57.14
46379;BME280;32084;42.254;22.744;2023-05-08T08:14:23;95417.56;;;20.50;57.11
46379;BME280;32084;42.254;22.744;2023-05-08T08:16:49;95423.72;;;20.32;59.20
46379;BME280;32084;42.254;22.744;2023-05-08T08:19:15;95428.88;;;19.88;62.63
46379;BME280;32084;42.254;22.744;2023-05-08T08:21:41;95433.88;;;19.65;64.11
46379;BME280;32084;42.254;22.744;2023-05-08T08:24:08;95429.31;;;19.52;67.22
46379;BME280;32084;42.254;22.744;2023-05-08T08:26:34;95435.38;;;19.21;68.90
46379;BME280;32084;42.254;22.744;2023-05-08T08:29:00;95432.22;;;19.04;71.78
46379;BME280;32084;42.254;22.744;2023-05-08T08:31:26;95426.38;;;18.94;72.77
46379;BME280;32084;42.254;22.744;2023-05-08T08:37:29;95429.53;;;19.50;73.30
46379;BME280;32084;42.254;22.744;2023-05-08T08:39:55;95423.03;;;19.85;70.40
46379;BME280;32084;42.254;22.744;2023-05-08T08:42:21;95415.59;;;20.25;67.81
46379;BME280;32084;42.254;22.744;2023-05-08T08:44:49;95419.75;;;20.80;66.09
46379;BME280;32084;42.254;22.744;2023-05-08T08:47:16;95425.72;;;21.96;62.24
46379;BME280;32084;42.254;22.744;2023-05-08T08:49:46;95427.81;;;22.68;58.27
46379;BME280;32084;42.254;22.744;2023-05-08T08:54:39;95413.81;;;22.64;56.54
46379;BME280;32084;42.254;22.744;2023-05-08T08:57:06;95415.34;;;22.23;59.24
46379;BME280;32084;42.254;22.744;2023-05-08T08:59:33;95416.63;;;22.02;59.48
46379;BME280;32084;42.254;22.744;2023-05-08T09:02:07;95422.22;;;21.89;60.24
46379;BME280;32084;42.254;22.744;2023-05-08T09:04:34;95420.56;;;21.88;60.43
46379;BME280;32084;42.254;22.744;2023-05-08T09:07:00;95417.97;;;21.74;60.61
46379;BME280;32084;42.254;22.744;2023-05-08T09:09:33;95424.75;;;21.40;58.63
46379;BME280;32084;42.254;22.744;2023-05-08T09:12:00;95422.78;;;21.22;58.88
46379;BME280;32084;42.254;22.744;2023-05-08T09:14:27;95423.66;;;20.91;60.95
46379;BME280;32084;42.254;22.744;2023-05-08T09:16:53;95420.22;;;20.70;61.34
46379;BME280;32084;42.254;22.744;2023-05-08T09:19:20;95417.75;;;20.55;61.58
46379;BME280;32084;42.254;22.744;2023-05-08T09:21:46;95417.41;;;20.38;62.34
46379;BME280;32084;42.254;22.744;2023-05-08T09:24:13;95413.25;;;20.36;64.29
46379;BME280;32084;42.254;22.744;2023-05-08T09:26:40;95408.31;;;20.19;63.24
46379;BME280;32084;42.254;22.744;2023-05-08T09:31:36;95393.38;;;19.90;65.19
46379;BME280;32084;42.254;22.744;2023-05-08T09:34:05;95379.22;;;19.68;67.95
46379;BME280;32084;42.254;22.744;2023-05-08T09:36:31;95380.50;;;19.52;67.47
46379;BME280;32084;42.254;22.744;2023-05-08T09:38:59;95363.00;;;19.35;69.56
46379;BME280;32084;42.254;22.744;2023-05-08T09:41:26;95349.47;;;19.15;69.93
46379;BME280;32084;42.254;22.744;2023-05-08T09:43:59;95342.59;;;18.85;74.52
46379;BME280;32084;42.254;22.744;2023-05-08T09:46:25;95333.84;;;18.97;75.24
46379;BME280;32084;42.254;22.744;2023-05-08T09:48:52;95335.94;;;19.15;74.66
46379;BME280;32084;42.254;22.744;2023-05-08T09:51:19;95336.13;;;19.26;75.18
46379;BME280;32084;42.254;22.744;2023-05-08T09:53:46;95351.50;;;19.53;73.08
46379;BME280;32084;42.254;22.744;2023-05-08T09:56:14;95347.50;;;19.75;75.50
46379;BME280;32084;42.254;22.744;2023-05-08T09:58:43;95352.13;;;20.20;75.89
46379;BME280;32084;42.254;22.744;2023-05-08T10:01:26;95352.41;;;20.82;68.81
46379;BME280;32084;42.254;22.744;2023-05-08T10:03:52;95358.91;;;21.31;70.97
46379;BME280;32084;42.254;22.744;2023-05-08T10:06:18;95364.44;;;21.43;64.50
46379;BME280;32084;42.254;22.744;2023-05-08T10:08:44;95365.09;;;21.45;64.36
46379;BME280;32084;42.254;22.744;2023-05-08T10:11:15;95360.09;;;21.42;65.39
46379;BME280;32084;42.254;22.744;2023-05-08T10:13:44;95360.34;;;21.34;60.40
46379;BME280;32084;42.254;22.744;2023-05-08T10:16:15;95350.44;;;21.46;61.00
46379;BME280;32084;42.254;22.744;2023-05-08T10:18:50;95345.47;;;21.61;62.37
46379;BME280;32084;42.254;22.744;2023-05-08T10:21:21;95345.94;;;21.77;63.96
46379;BME280;32084;42.254;22.744;2023-05-08T10:23:49;95349.41;;;21.66;66.33
46379;BME280;32084;42.254;22.744;2023-05-08T10:26:21;95345.63;;;21.85;65.09
46379;BME280;32084;42.254;22.744;2023-05-08T10:28:56;95343.88;;;22.09;65.66
46379;BME280;32084;42.254;22.744;2023-05-08T10:31:27;95345.03;;;22.01;63.04
46379;BME280;32084;42.254;22.744;2023-05-08T10:33:55;95342.53;;;22.00;63.46
46379;BME280;32084;42.254;22.744;2023-05-08T10:36:24;95343.88;;;22.09;62.91
46379;BME280;32084;42.254;22.744;2023-05-08T10:38:51;95338.59;;;21.96;62.24
46379;BME280;32084;42.254;22.744;2023-05-08T10:41:18;95329.22;;;21.92;64.71
46379;BME280;32084;42.254;22.744;2023-05-08T10:43:44;95331.63;;;22.00;62.77
46379;BME280;32084;42.254;22.744;2023-05-08T10:49:18;95330.03;;;21.74;59.90
46379;BME280;32084;42.254;22.744;2023-05-08T10:57:14;95319.78;;;22.43;58.29
46379;BME280;32084;42.254;22.744;2023-05-08T10:59:43;95308.75;;;22.80;60.50
46379;BME280;32084;42.254;22.744;2023-05-08T11:02:10;95310.03;;;23.19;60.10
46379;BME280;32084;42.254;22.744;2023-05-08T11:04:36;95304.09;;;23.11;57.36
46379;BME280;32084;42.254;22.744;2023-05-08T11:07:03;95303.56;;;22.90;55.99
46379;BME280;32084;42.254;22.744;2023-05-08T11:09:44;95298.94;;;23.03;57.46
46379;BME280;32084;42.254;22.744;2023-05-08T11:12:45;95290.69;;;23.21;56.55
46379;BME280;32084;42.254;22.744;2023-05-08T11:15:05;95290.41;;;22.99;57.36
46379;BME280;32084;42.254;22.744;2023-05-08T11:17:32;95281.13;;;22.76;56.20
46379;BME280;32084;42.254;22.744;2023-05-08T11:19:59;95279.63;;;22.92;56.48
46379;BME280;32084;42.254;22.744;2023-05-08T11:22:26;95286.06;;;23.10;54.96
46379;BME280;32084;42.254;22.744;2023-05-08T11:27:33;95264.72;;;22.41;57.69
46379;BME280;32084;42.254;22.744;2023-05-08T11:43:25;95263.69;;;22.23;57.86
46379;BME280;32084;42.254;22.744;2023-05-08T11:45:52;95257.09;;;22.73;56.71
46379;BME280;32084;42.254;22.744;2023-05-08T11:48:19;95257.09;;;22.85;56.63
46379;BME280;32084;42.254;22.744;2023-05-08T11:50:45;95250.78;;;22.61;57.04
46379;BME280;32084;42.254;22.744;2023-05-08T11:53:13;95249.91;;;22.37;55.25
46379;BME280;32084;42.254;22.744;2023-05-08T11:55:39;95251.78;;;22.36;56.54
46379;BME280;32084;42.254;22.744;2023-05-08T11:58:12;95255.72;;;22.40;58.10
46379;BME280;32084;42.254;22.744;2023-05-08T12:00:41;95256.91;;;22.45;57.84
46379;BME280;32084;42.254;22.744;2023-05-08T12:03:14;95258.06;;;22.37;58.54
46379;BME280;32084;42.254;22.744;2023-05-08T12:05:41;95264.00;;;22.46;58.29
46379;BME280;32084;42.254;22.744;2023-05-08T12:08:11;95263.34;;;22.62;57.72
46379;BME280;32084;42.254;22.744;2023-05-08T12:10:47;95247.47;;;22.71;55.25
46379;BME280;32084;42.254;22.744;2023-05-08T12:13:14;95234.38;;;23.15;58.06
46379;BME280;32084;42.254;22.744;2023-05-08T12:15:41;95227.81;;;23.51;56.56
46379;BME280;32084;42.254;22.744;2023-05-08T12:18:07;95224.69;;;23.59;55.36
46379;BME280;32084;42.254;22.744;2023-05-08T12:20:33;95217.88;;;23.45;53.65
46379;BME280;32084;42.254;22.744;2023-05-08T12:23:01;95212.88;;;23.42;53.01
46379;BME280;32084;42.254;22.744;2023-05-08T12:25:27;95210.53;;;23.34;54.24
46379;BME280;32084;42.254;22.744;2023-05-08T12:27:53;95207.81;;;23.34;55.35
46379;BME280;32084;42.254;22.744;2023-05-08T12:30:19;95195.94;;;23.28;54.24
46379;BME280;32084;42.254;22.744;2023-05-08T12:32:45;95180.81;;;23.09;51.68
46379;BME280;32084;42.254;22.744;2023-05-08T12:35:12;95179.69;;;22.74;53.23
46379;BME280;32084;42.254;22.744;2023-05-08T12:37:38;95174.38;;;22.68;55.34
46379;BME280;32084;42.254;22.744;2023-05-08T12:40:05;95172.84;;;22.72;53.42
46379;BME280;32084;42.254;22.744;2023-05-08T12:42:44;95164.78;;;22.77;54.29
46379;BME280;32084;42.254;22.744;2023-05-08T12:45:45;95158.47;;;22.65;54.50
46379;BME280;32084;42.254;22.744;2023-05-08T12:48:05;95159.66;;;22.69;57.55
46379;BME280;32084;42.254;22.744;2023-05-08T12:50:35;95170.56;;;22.57;57.40
46379;BME280;32084;42.254;22.744;2023-05-08T12:53:06;95163.69;;;22.66;58.94
46379;BME280;32084;42.254;22.744;2023-05-08T12:55:33;95165.38;;;22.67;58.97
46379;BME280;32084;42.254;22.744;2023-05-08T12:58:04;95172.00;;;22.71;58.21
46379;BME280;32084;42.254;22.744;2023-05-08T13:00:34;95159.19;;;22.95;57.94
46379;BME280;32084;42.254;22.744;2023-05-08T13:03:01;95168.34;;;23.13;56.86
46379;BME280;32084;42.254;22.744;2023-05-08T13:05:27;95161.31;;;22.93;56.70
46379;BME280;32084;42.254;22.744;2023-05-08T13:08:27;95152.34;;;22.81;57.83
46379;BME280;32084;42.254;22.744;2023-05-08T13:13:12;95144.00;;;22.88;57.49
46379;BME280;32084;42.254;22.744;2023-05-08T13:15:39;95141.53;;;22.63;58.45
46379;BME280;32084;42.254;22.744;2023-05-08T13:18:05;95138.47;;;22.59;58.17
46379;BME280;32084;42.254;22.744;2023-05-08T13:20:33;95141.91;;;22.66;58.29
46379;BME280;32084;42.254;22.744;2023-05-08T13:22:59;95139.91;;;22.73;57.61
46379;BME280;32084;42.254;22.744;2023-05-08T13:25:25;95143.44;;;22.62;57.74
46379;BME280;32084;42.254;22.744;2023-05-08T13:27:51;95146.03;;;22.57;57.63
46379;BME280;32084;42.254;22.744;2023-05-08T13:30:17;95151.72;;;22.44;59.14
46379;BME280;32084;42.254;22.744;2023-05-08T13:32:43;95143.78;;;22.30;59.42
46379;BME280;32084;42.254;22.744;2023-05-08T13:35:09;95153.19;;;22.16;60.12
46379;BME280;32084;42.254;22.744;2023-05-08T13:37:35;95155.84;;;21.92;61.56
46379;BME280;32084;42.254;22.744;2023-05-08T13:40:01;95158.16;;;21.77;63.13
46379;BME280;32084;42.254;22.744;2023-05-08T13:42:27;95147.31;;;21.58;61.43
46379;BME280;32084;42.254;22.744;2023-05-08T13:44:53;95158.56;;;21.43;59.72
46379;BME280;32084;42.254;22.744;2023-05-08T13:47:19;95146.97;;;21.18;61.47
46379;BME280;32084;42.254;22.744;2023-05-08T13:49:45;95149.22;;;20.84;63.45
46379;BME280;32084;42.254;22.744;2023-05-08T13:52:12;95145.13;;;20.75;63.04
46379;BME280;32084;42.254;22.744;2023-05-08T13:54:38;95146.25;;;20.67;62.33
46379;BME280;32084;42.254;22.744;2023-05-08T13:57:04;95131.56;;;20.50;63.72
46379;BME280;32084;42.254;22.744;2023-05-08T13:59:30;95147.56;;;20.58;66.66
46379;BME280;32084;42.254;22.744;2023-05-08T14:01:57;95161.19;;;20.33;65.90
46379;BME280;32084;42.254;22.744;2023-05-08T14:04:23;95169.97;;;20.53;66.95
46379;BME280;32084;42.254;22.744;2023-05-08T14:06:50;95182.47;;;20.61;65.06